sensor_id;sensor_type;location;lat;lon;timestamp;pressure;altitude;pressure_sealevel;temperature;humidity
64402;BME280;50724;42.376;23.768;2023-07-30T00:01:02;93038.44;;;17.60;62.31
64402;BME280;50724;42.376;23.768;2023-07-30T00:04:03;93035.19;;;17.52;62.31
64402;BME280;50724;42.376;23.768;2023-07-30T00:07:03;93031.53;;;17.53;62.24
64402;BME280;50724;42.376;23.768;2023-07-30T00:10:04;93033.50;;;17.64;61.88
64402;BME280;50724;42.376;23.768;2023-07-30T00:13:05;93038.41;;;17.67;61.53
64402;BME280;50724;42.376;23.768;2023-07-30T00:16:05;93035.97;;;17.59;61.77
64402;BME280;50724;42.376;23.768;2023-07-30T00:19:06;93034.94;;;17.66;61.54
64402;BME280;50724;42.376;23.768;2023-07-30T00:22:06;93030.66;;;17.72;60.28
64402;BME280;50724;42.376;23.768;2023-07-30T00:25:07;93033.13;;;17.54;61.50
64402;BME280;50724;42.376;23.768;2023-07-30T00:28:09;93029.50;;;17.48;61.99
64402;BME280;50724;42.376;23.768;2023-07-30T00:31:09;93033.13;;;17.54;61.83
64402;BME280;50724;42.376;23.768;2023-07-30T00:34:10;93034.19;;;17.53;61.65
64402;BME280;50724;42.376;23.768;2023-07-30T00:37:10;93031.31;;;17.48;62.15
64402;BME280;50724;42.376;23.768;2023-07-30T00:40:11;93036.78;;;17.59;61.17
64402;BME280;50724;42.376;23.768;2023-07-30T00:43:12;93031.91;;;17.56;60.68
64402;BME280;50724;42.376;23.768;2023-07-30T00:46:13;93042.56;;;17.30;61.75
64402;BME280;50724;42.376;23.768;2023-07-30T00:49:13;93032.84;;;17.17;62.67
64402;BME280;50724;42.376;23.768;2023-07-30T00:52:16;93034.25;;;17.07;63.35
64402;BME280;50724;42.376;23.768;2023-07-30T00:55:17;93032.06;;;17.04;63.35
64402;BME280;50724;42.376;23.768;2023-07-30T00:58:18;93023.91;;;17.05;63.58
64402;BME280;50724;42.376;23.768;2023-07-30T01:01:20;93027.41;;;16.99;63.07
64402;BME280;50724;42.376;23.768;2023-07-30T01:04:21;93024.13;;;17.04;62.67
64402;BME280;50724;42.376;23.768;2023-07-30T01:07:22;93026.16;;;16.95;63.05
64402;BME280;50724;42.376;23.768;2023-07-30T01:10:22;93026.16;;;16.95;63.55
64402;BME280;50724;42.376;23.768;2023-07-30T01:13:23;93024.13;;;16.97;63.75
64402;BME280;50724;42.376;23.768;2023-07-30T01:16:24;93026.41;;;16.87;63.94
64402;BME280;50724;42.376;23.768;2023-07-30T01:19:24;93029.03;;;16.87;64.07
64402;BME280;50724;42.376;23.768;2023-07-30T01:22:25;93024.16;;;16.84;64.66
64402;BME280;50724;42.376;23.768;2023-07-30T01:25:33;93031.06;;;16.79;64.36
64402;BME280;50724;42.376;23.768;2023-07-30T01:28:46;93029.06;;;16.81;64.41
64402;BME280;50724;42.376;23.768;2023-07-30T01:31:53;93030.03;;;16.86;64.60
64402;BME280;50724;42.376;23.768;2023-07-30T01:35:04;93029.66;;;16.70;65.43
64402;BME280;50724;42.376;23.768;2023-07-30T01:38:08;93031.88;;;16.73;65.03
64402;BME280;50724;42.376;23.768;2023-07-30T01:41:09;93031.47;;;16.63;65.28
64402;BME280;50724;42.376;23.768;2023-07-30T01:44:09;93037.19;;;16.60;65.37
64402;BME280;50724;42.376;23.768;2023-07-30T01:47:10;93028.44;;;16.66;65.70
64402;BME280;50724;42.376;23.768;2023-07-30T01:50:10;93038.19;;;16.65;65.50
64402;BME280;50724;42.376;23.768;2023-07-30T01:53:11;93028.66;;;16.64;65.47
64402;BME280;50724;42.376;23.768;2023-07-30T01:56:20;93032.28;;;16.63;65.38
64402;BME280;50724;42.376;23.768;2023-07-30T01:59:30;93031.09;;;16.59;65.59
64402;BME280;50724;42.376;23.768;2023-07-30T02:02:30;93034.28;;;16.41;66.49
64402;BME280;50724;42.376;23.768;2023-07-30T02:05:31;93030.66;;;16.36;66.31
64402;BME280;50724;42.376;23.768;2023-07-30T02:08:40;93023.72;;;16.28;66.44
64402;BME280;50724;42.376;23.768;2023-07-30T02:11:49;93030.44;;;16.31;66.73
64402;BME280;50724;42.376;23.768;2023-07-30T02:14:49;93027.97;;;16.29;66.32
64402;BME280;50724;42.376;23.768;2023-07-30T02:17:50;93035.50;;;16.13;67.70
64402;BME280;50724;42.376;23.768;2023-07-30T02:20:50;93031.22;;;16.18;67.71
64402;BME280;50724;42.376;23.768;2023-07-30T02:23:51;93042.22;;;16.22;67.24
64402;BME280;50724;42.376;23.768;2023-07-30T02:26:51;93036.50;;;16.18;67.40
64402;BME280;50724;42.376;23.768;2023-07-30T02:29:51;93045.41;;;16.11;67.61
64402;BME280;50724;42.376;23.768;2023-07-30T02:32:52;93047.84;;;15.99;68.27
64402;BME280;50724;42.376;23.768;2023-07-30T02:35:52;93051.94;;;16.08;67.53
64402;BME280;50724;42.376;23.768;2023-07-30T02:38:53;93059.03;;;16.08;67.94
64402;BME280;50724;42.376;23.768;2023-07-30T02:41:53;93052.72;;;16.15;67.69
64402;BME280;50724;42.376;23.768;2023-07-30T02:44:53;93051.94;;;16.21;67.27
64402;BME280;50724;42.376;23.768;2023-07-30T02:47:54;93054.59;;;16.21;67.20
64402;BME280;50724;42.376;23.768;2023-07-30T02:50:54;93055.78;;;16.06;67.98
64402;BME280;50724;42.376;23.768;2023-07-30T02:53:58;93056.56;;;16.00;68.33
64402;BME280;50724;42.376;23.768;2023-07-30T02:57:01;93060.03;;;16.00;68.26
64402;BME280;50724;42.376;23.768;2023-07-30T03:00:02;93060.63;;;16.09;67.63
64402;BME280;50724;42.376;23.768;2023-07-30T03:03:04;93056.78;;;16.18;67.48
64402;BME280;50724;42.376;23.768;2023-07-30T03:06:04;93062.06;;;16.11;67.63
64402;BME280;50724;42.376;23.768;2023-07-30T03:09:05;93058.44;;;16.06;67.96
64402;BME280;50724;42.376;23.768;2023-07-30T03:12:05;93049.28;;;16.08;68.12
64402;BME280;50724;42.376;23.768;2023-07-30T03:15:06;93051.50;;;16.05;67.73
64402;BME280;50724;42.376;23.768;2023-07-30T03:18:07;93057.19;;;16.02;67.62
64402;BME280;50724;42.376;23.768;2023-07-30T03:21:07;93059.03;;;16.08;67.57
64402;BME280;50724;42.376;23.768;2023-07-30T03:24:08;93053.56;;;16.16;67.19
64402;BME280;50724;42.376;23.768;2023-07-30T03:27:08;93059.25;;;16.26;67.00
64402;BME280;50724;42.376;23.768;2023-07-30T03:30:09;93073.88;;;16.22;66.88
64402;BME280;50724;42.376;23.768;2023-07-30T03:33:10;93063.50;;;16.20;67.73
64402;BME280;50724;42.376;23.768;2023-07-30T03:36:10;93067.97;;;16.13;67.96
64402;BME280;50724;42.376;23.768;2023-07-30T03:39:11;93070.59;;;16.07;68.44
64402;BME280;50724;42.376;23.768;2023-07-30T03:42:11;93076.06;;;16.05;69.25
64402;BME280;50724;42.376;23.768;2023-07-30T03:45:12;93073.06;;;16.15;68.75
64402;BME280;50724;42.376;23.768;2023-07-30T03:48:12;93076.09;;;16.25;69.00
64402;BME280;50724;42.376;23.768;2023-07-30T03:51:13;93074.91;;;16.40;68.43
64402;BME280;50724;42.376;23.768;2023-07-30T03:54:13;93075.13;;;16.45;68.87
64402;BME280;50724;42.376;23.768;2023-07-30T03:57:13;93076.16;;;16.51;68.85
64402;BME280;50724;42.376;23.768;2023-07-30T04:00:14;93081.47;;;16.64;68.87
64402;BME280;50724;42.376;23.768;2023-07-30T04:03:14;93078.81;;;16.77;68.47
64402;BME280;50724;42.376;23.768;2023-07-30T04:06:15;93079.22;;;16.87;67.97
64402;BME280;50724;42.376;23.768;2023-07-30T04:09:15;93079.03;;;17.02;67.21
64402;BME280;50724;42.376;23.768;2023-07-30T04:12:15;93078.56;;;17.11;68.17
64402;BME280;50724;42.376;23.768;2023-07-30T04:15:16;93074.09;;;17.25;67.70
64402;BME280;50724;42.376;23.768;2023-07-30T04:18:16;93077.53;;;17.39;66.87
64402;BME280;50724;42.376;23.768;2023-07-30T04:21:17;93071.19;;;17.59;66.89
64402;BME280;50724;42.376;23.768;2023-07-30T04:24:17;93081.44;;;17.87;63.97
64402;BME280;50724;42.376;23.768;2023-07-30T04:27:17;93084.00;;;18.07;62.88
64402;BME280;50724;42.376;23.768;2023-07-30T04:30:18;93078.69;;;18.13;62.26
64402;BME280;50724;42.376;23.768;2023-07-30T04:33:18;93086.06;;;18.74;61.66
64402;BME280;50724;42.376;23.768;2023-07-30T04:36:19;93087.75;;;19.17;59.67
64402;BME280;50724;42.376;23.768;2023-07-30T04:39:19;93097.78;;;20.42;57.36
64402;BME280;50724;42.376;23.768;2023-07-30T04:42:19;93104.78;;;23.75;47.43
64402;BME280;50724;42.376;23.768;2023-07-30T04:45:20;93104.84;;;26.82;39.88
64402;BME280;50724;42.376;23.768;2023-07-30T04:48:20;93105.13;;;29.83;33.52
64402;BME280;50724;42.376;23.768;2023-07-30T04:51:21;93105.97;;;31.77;30.27
64402;BME280;50724;42.376;23.768;2023-07-30T04:54:24;93111.41;;;33.09;27.80
64402;BME280;50724;42.376;23.768;2023-07-30T04:57:25;93110.63;;;34.25;26.73
64402;BME280;50724;42.376;23.768;2023-07-30T05:00:26;93114.53;;;35.02;25.43
64402;BME280;50724;42.376;23.768;2023-07-30T05:03:26;93120.09;;;35.79;24.29
64402;BME280;50724;42.376;23.768;2023-07-30T05:06:27;93118.25;;;36.52;23.63
64402;BME280;50724;42.376;23.768;2023-07-30T05:09:27;93105.41;;;36.99;22.88
64402;BME280;50724;42.376;23.768;2023-07-30T05:12:27;93109.78;;;36.28;24.10
64402;BME280;50724;42.376;23.768;2023-07-30T05:15:28;93113.69;;;36.01;24.65
64402;BME280;50724;42.376;23.768;2023-07-30T05:18:28;93112.72;;;37.15;23.20
64402;BME280;50724;42.376;23.768;2023-07-30T05:21:29;93111.53;;;36.96;23.17
64402;BME280;50724;42.376;23.768;2023-07-30T05:24:29;93106.91;;;35.30;25.20
64402;BME280;50724;42.376;23.768;2023-07-30T05:27:29;93105.78;;;33.06;28.50
64402;BME280;50724;42.376;23.768;2023-07-30T05:30:31;93099.88;;;31.71;30.37
64402;BME280;50724;42.376;23.768;2023-07-30T05:33:32;93097.09;;;29.40;34.37
64402;BME280;50724;42.376;23.768;2023-07-30T05:36:32;93098.69;;;28.33;36.57
64402;BME280;50724;42.376;23.768;2023-07-30T05:39:32;93097.19;;;27.56;37.35
64402;BME280;50724;42.376;23.768;2023-07-30T05:42:33;93095.75;;;27.08;38.29
64402;BME280;50724;42.376;23.768;2023-07-30T05:45:33;93098.69;;;26.20;39.88
64402;BME280;50724;42.376;23.768;2023-07-30T05:48:34;93095.13;;;26.09;40.64
64402;BME280;50724;42.376;23.768;2023-07-30T05:51:34;93095.75;;;26.26;41.28
64402;BME280;50724;42.376;23.768;2023-07-30T05:54:35;93101.41;;;26.30;39.01
64402;BME280;50724;42.376;23.768;2023-07-30T05:57:36;93101.69;;;25.86;40.72
64402;BME280;50724;42.376;23.768;2023-07-30T06:00:36;93103.00;;;25.84;42.06
64402;BME280;50724;42.376;23.768;2023-07-30T06:03:37;93102.22;;;25.83;41.29
64402;BME280;50724;42.376;23.768;2023-07-30T06:06:37;93107.50;;;26.15;40.39
64402;BME280;50724;42.376;23.768;2023-07-30T06:09:38;93108.28;;;26.11;41.14
64402;BME280;50724;42.376;23.768;2023-07-30T06:12:38;93103.59;;;25.96;39.94
64402;BME280;50724;42.376;23.768;2023-07-30T06:15:38;93105.50;;;26.47;36.17
64402;BME280;50724;42.376;23.768;2023-07-30T06:18:39;93106.63;;;26.51;36.63
64402;BME280;50724;42.376;23.768;2023-07-30T06:21:39;93103.75;;;26.78;36.88
64402;BME280;50724;42.376;23.768;2023-07-30T06:24:40;93100.84;;;26.90;36.74
64402;BME280;50724;42.376;23.768;2023-07-30T06:27:40;93100.88;;;27.05;36.26
64402;BME280;50724;42.376;23.768;2023-07-30T06:30:41;93104.09;;;27.22;36.33
64402;BME280;50724;42.376;23.768;2023-07-30T06:33:41;93109.25;;;27.34;35.57
64402;BME280;50724;42.376;23.768;2023-07-30T06:36:41;93100.13;;;27.45;34.99
64402;BME280;50724;42.376;23.768;2023-07-30T06:39:42;93093.41;;;27.47;34.53
64402;BME280;50724;42.376;23.768;2023-07-30T06:42:42;93100.66;;;27.72;34.56
64402;BME280;50724;42.376;23.768;2023-07-30T06:45:43;93104.16;;;27.72;34.45
64402;BME280;50724;42.376;23.768;2023-07-30T06:48:43;93090.94;;;27.91;34.56
64402;BME280;50724;42.376;23.768;2023-07-30T06:51:43;93097.44;;;27.75;34.51
64402;BME280;50724;42.376;23.768;2023-07-30T06:54:44;93093.34;;;27.92;35.02
64402;BME280;50724;42.376;23.768;2023-07-30T06:57:44;93089.63;;;27.88;33.56
64402;BME280;50724;42.376;23.768;2023-07-30T07:00:44;93082.88;;;27.86;34.82
64402;BME280;50724;42.376;23.768;2023-07-30T07:03:45;93078.38;;;27.61;34.76
64402;BME280;50724;42.376;23.768;2023-07-30T07:06:47;93085.06;;;27.39;35.02
64402;BME280;50724;42.376;23.768;2023-07-30T07:09:48;93076.97;;;27.89;34.85
64402;BME280;50724;42.376;23.768;2023-07-30T07:12:48;93080.25;;;27.66;34.14
64402;BME280;50724;42.376;23.768;2023-07-30T07:15:50;93080.16;;;28.11;33.91
64402;BME280;50724;42.376;23.768;2023-07-30T07:18:50;93077.13;;;28.38;33.81
64402;BME280;50724;42.376;23.768;2023-07-30T07:21:50;93070.31;;;28.66;33.02
64402;BME280;50724;42.376;23.768;2023-07-30T07:24:51;93073.28;;;28.54;33.59
64402;BME280;50724;42.376;23.768;2023-07-30T07:27:55;93062.44;;;28.00;33.41
64402;BME280;50724;42.376;23.768;2023-07-30T07:30:55;93070.50;;;28.15;33.24
64402;BME280;50724;42.376;23.768;2023-07-30T07:33:56;93065.34;;;28.29;33.14
64402;BME280;50724;42.376;23.768;2023-07-30T07:36:56;93066.28;;;28.63;32.90
64402;BME280;50724;42.376;23.768;2023-07-30T07:39:56;93064.03;;;28.80;33.02
64402;BME280;50724;42.376;23.768;2023-07-30T07:42:57;93056.50;;;28.82;33.75
64402;BME280;50724;42.376;23.768;2023-07-30T07:45:57;93050.53;;;28.90;33.07
64402;BME280;50724;42.376;23.768;2023-07-30T07:48:57;93043.81;;;28.88;32.33
64402;BME280;50724;42.376;23.768;2023-07-30T07:52:09;93051.78;;;28.49;32.91
64402;BME280;50724;42.376;23.768;2023-07-30T07:55:18;93043.50;;;28.94;33.26
64402;BME280;50724;42.376;23.768;2023-07-30T07:58:18;93055.66;;;29.31;32.22
64402;BME280;50724;42.376;23.768;2023-07-30T08:01:19;93052.53;;;29.47;32.54
64402;BME280;50724;42.376;23.768;2023-07-30T08:04:19;93043.25;;;28.91;32.82
64402;BME280;50724;42.376;23.768;2023-07-30T08:07:21;93047.16;;;29.08;32.55
64402;BME280;50724;42.376;23.768;2023-07-30T08:10:22;93042.88;;;29.46;31.41
64402;BME280;50724;42.376;23.768;2023-07-30T08:13:22;93045.03;;;29.78;31.53
64402;BME280;50724;42.376;23.768;2023-07-30T08:16:23;93045.78;;;29.83;31.18
64402;BME280;50724;42.376;23.768;2023-07-30T08:19:26;93046.16;;;30.01;30.88
64402;BME280;50724;42.376;23.768;2023-07-30T08:22:27;93033.16;;;29.74;31.43
64402;BME280;50724;42.376;23.768;2023-07-30T08:25:27;93032.28;;;29.83;31.27
64402;BME280;50724;42.376;23.768;2023-07-30T08:28:28;93034.38;;;30.15;30.96
64402;BME280;50724;42.376;23.768;2023-07-30T08:31:28;93024.25;;;29.78;30.78
64402;BME280;50724;42.376;23.768;2023-07-30T08:34:28;93018.38;;;30.00;30.85
64402;BME280;50724;42.376;23.768;2023-07-30T08:37:39;93017.34;;;30.20;30.51
64402;BME280;50724;42.376;23.768;2023-07-30T08:40:54;93006.97;;;30.50;29.16
64402;BME280;50724;42.376;23.768;2023-07-30T08:44:11;93007.78;;;30.51;29.63
64402;BME280;50724;42.376;23.768;2023-07-30T08:47:24;92999.47;;;30.90;30.16
64402;BME280;50724;42.376;23.768;2023-07-30T08:50:25;93000.75;;;31.11;29.53
64402;BME280;50724;42.376;23.768;2023-07-30T08:53:26;92987.81;;;31.08;29.60
64402;BME280;50724;42.376;23.768;2023-07-30T08:56:26;92988.44;;;31.18;28.68
64402;BME280;50724;42.376;23.768;2023-07-30T08:59:31;92982.28;;;30.99;29.63
64402;BME280;50724;42.376;23.768;2023-07-30T09:05:36;92986.34;;;30.59;28.85
64402;BME280;50724;42.376;23.768;2023-07-30T09:08:36;92986.72;;;31.09;29.82
64402;BME280;50724;42.376;23.768;2023-07-30T09:11:37;92984.44;;;31.16;26.28
64402;BME280;50724;42.376;23.768;2023-07-30T09:14:38;92979.69;;;30.10;28.38
64402;BME280;50724;42.376;23.768;2023-07-30T09:17:38;92980.81;;;30.04;29.02
64402;BME280;50724;42.376;23.768;2023-07-30T09:20:40;92989.34;;;30.11;27.38
64402;BME280;50724;42.376;23.768;2023-07-30T09:23:44;92976.47;;;30.08;27.40
64402;BME280;50724;42.376;23.768;2023-07-30T09:26:46;92978.59;;;30.53;26.24
64402;BME280;50724;42.376;23.768;2023-07-30T09:29:51;92977.22;;;30.74;27.67
64402;BME280;50724;42.376;23.768;2023-07-30T09:32:53;92974.50;;;29.89;28.96
64402;BME280;50724;42.376;23.768;2023-07-30T09:35:53;92970.50;;;30.29;28.40
64402;BME280;50724;42.376;23.768;2023-07-30T09:38:55;92966.41;;;30.55;28.33
64402;BME280;50724;42.376;23.768;2023-07-30T09:42:00;92962.75;;;30.84;28.06
64402;BME280;50724;42.376;23.768;2023-07-30T09:45:01;92957.38;;;31.02;27.03
64402;BME280;50724;42.376;23.768;2023-07-30T09:48:03;92967.66;;;30.44;26.62
64402;BME280;50724;42.376;23.768;2023-07-30T09:51:05;92953.56;;;30.85;26.80
64402;BME280;50724;42.376;23.768;2023-07-30T09:54:07;92950.91;;;30.24;27.69
64402;BME280;50724;42.376;23.768;2023-07-30T09:57:08;92943.78;;;30.70;27.29
64402;BME280;50724;42.376;23.768;2023-07-30T10:00:09;92937.66;;;30.65;26.59
64402;BME280;50724;42.376;23.768;2023-07-30T10:03:11;92941.44;;;31.33;26.43
64402;BME280;50724;42.376;23.768;2023-07-30T10:06:13;92945.69;;;30.88;25.98
64402;BME280;50724;42.376;23.768;2023-07-30T10:09:14;92933.81;;;30.89;26.60
64402;BME280;50724;42.376;23.768;2023-07-30T10:12:21;92936.06;;;30.64;26.67
64402;BME280;50724;42.376;23.768;2023-07-30T10:15:23;92930.28;;;30.70;26.06
64402;BME280;50724;42.376;23.768;2023-07-30T10:18:33;92924.19;;;31.48;25.10
64402;BME280;50724;42.376;23.768;2023-07-30T10:21:34;92922.66;;;31.42;25.43
64402;BME280;50724;42.376;23.768;2023-07-30T10:24:35;92920.09;;;31.18;25.66
64402;BME280;50724;42.376;23.768;2023-07-30T10:27:39;92922.56;;;31.14;26.30
64402;BME280;50724;42.376;23.768;2023-07-30T10:30:40;92915.25;;;30.83;26.14
64402;BME280;50724;42.376;23.768;2023-07-30T10:33:51;92905.81;;;30.99;26.27
64402;BME280;50724;42.376;23.768;2023-07-30T10:36:55;92904.59;;;31.69;25.54
64402;BME280;50724;42.376;23.768;2023-07-30T10:39:56;92913.00;;;32.22;24.63
64402;BME280;50724;42.376;23.768;2023-07-30T10:42:56;92908.69;;;31.67;24.62
64402;BME280;50724;42.376;23.768;2023-07-30T10:45:57;92897.38;;;32.06;25.30
64402;BME280;50724;42.376;23.768;2023-07-30T10:48:57;92891.94;;;32.33;24.44
64402;BME280;50724;42.376;23.768;2023-07-30T10:51:58;92890.09;;;32.55;24.18
64402;BME280;50724;42.376;23.768;2023-07-30T10:55:01;92886.88;;;32.89;24.64
64402;BME280;50724;42.376;23.768;2023-07-30T10:58:02;92885.56;;;33.31;24.60
64402;BME280;50724;42.376;23.768;2023-07-30T11:01:04;92886.50;;;33.04;23.98
64402;BME280;50724;42.376;23.768;2023-07-30T11:04:07;92878.00;;;32.75;23.72
64402;BME280;50724;42.376;23.768;2023-07-30T11:07:07;92878.22;;;31.75;24.49
64402;BME280;50724;42.376;23.768;2023-07-30T11:10:09;92871.63;;;30.57;26.92
64402;BME280;50724;42.376;23.768;2023-07-30T11:13:09;92863.63;;;30.84;26.30
64402;BME280;50724;42.376;23.768;2023-07-30T11:16:10;92870.50;;;31.55;25.06
64402;BME280;50724;42.376;23.768;2023-07-30T11:19:10;92861.97;;;31.34;25.28
64402;BME280;50724;42.376;23.768;2023-07-30T11:22:13;92858.09;;;31.81;25.23
64402;BME280;50724;42.376;23.768;2023-07-30T11:25:17;92865.09;;;31.68;24.32
64402;BME280;50724;42.376;23.768;2023-07-30T11:28:32;92873.34;;;32.53;24.02
64402;BME280;50724;42.376;23.768;2023-07-30T11:31:33;92863.53;;;33.02;24.00
64402;BME280;50724;42.376;23.768;2023-07-30T11:34:33;92859.00;;;32.97;23.75
64402;BME280;50724;42.376;23.768;2023-07-30T11:37:40;92856.38;;;32.48;24.21
64402;BME280;50724;42.376;23.768;2023-07-30T11:40:43;92847.22;;;31.26;25.58
64402;BME280;50724;42.376;23.768;2023-07-30T11:43:44;92849.72;;;30.58;26.46
64402;BME280;50724;42.376;23.768;2023-07-30T11:46:54;92850.06;;;30.89;25.97
64402;BME280;50724;42.376;23.768;2023-07-30T11:49:56;92838.88;;;30.96;26.42
64402;BME280;50724;42.376;23.768;2023-07-30T11:52:57;92846.53;;;30.56;26.17
64402;BME280;50724;42.376;23.768;2023-07-30T11:55:57;92832.72;;;30.58;26.78
64402;BME280;50724;42.376;23.768;2023-07-30T11:58:59;92824.56;;;30.26;26.73
64402;BME280;50724;42.376;23.768;2023-07-30T12:02:00;92829.72;;;30.41;27.80
64402;BME280;50724;42.376;23.768;2023-07-30T12:05:01;92836.97;;;30.96;26.89
64402;BME280;50724;42.376;23.768;2023-07-30T12:08:04;92828.06;;;31.09;25.78
64402;BME280;50724;42.376;23.768;2023-07-30T12:11:08;92831.41;;;31.06;26.15
64402;BME280;50724;42.376;23.768;2023-07-30T12:14:09;92822.09;;;31.12;26.67
64402;BME280;50724;42.376;23.768;2023-07-30T12:17:10;92814.50;;;30.31;27.26
64402;BME280;50724;42.376;23.768;2023-07-30T12:20:13;92818.09;;;30.78;26.94
64402;BME280;50724;42.376;23.768;2023-07-30T12:23:14;92809.22;;;30.91;26.45
64402;BME280;50724;42.376;23.768;2023-07-30T12:26:14;92814.00;;;30.80;27.04
64402;BME280;50724;42.376;23.768;2023-07-30T12:29:15;92798.03;;;30.97;26.45
64402;BME280;50724;42.376;23.768;2023-07-30T12:32:16;92797.94;;;31.16;26.26
64402;BME280;50724;42.376;23.768;2023-07-30T12:35:17;92804.06;;;32.03;25.40
64402;BME280;50724;42.376;23.768;2023-07-30T12:38:17;92795.88;;;32.30;25.07
64402;BME280;50724;42.376;23.768;2023-07-30T12:41:18;92791.66;;;32.60;25.24
64402;BME280;50724;42.376;23.768;2023-07-30T12:44:19;92784.25;;;32.52;25.05
64402;BME280;50724;42.376;23.768;2023-07-30T12:47:19;92790.00;;;32.50;25.83
64402;BME280;50724;42.376;23.768;2023-07-30T12:50:20;92778.31;;;32.64;24.83
64402;BME280;50724;42.376;23.768;2023-07-30T12:53:20;92775.25;;;33.09;24.74
64402;BME280;50724;42.376;23.768;2023-07-30T12:56:21;92760.63;;;32.97;24.94
64402;BME280;50724;42.376;23.768;2023-07-30T12:59:22;92767.03;;;33.79;23.69
64402;BME280;50724;42.376;23.768;2023-07-30T13:02:22;92756.91;;;34.36;23.27
64402;BME280;50724;42.376;23.768;2023-07-30T13:05:23;92766.00;;;34.40;23.18
64402;BME280;50724;42.376;23.768;2023-07-30T13:08:23;92760.72;;;34.78;22.58
64402;BME280;50724;42.376;23.768;2023-07-30T13:11:24;92760.41;;;34.71;22.70
64402;BME280;50724;42.376;23.768;2023-07-30T13:14:24;92748.72;;;34.45;22.59
64402;BME280;50724;42.376;23.768;2023-07-30T13:17:24;92745.84;;;33.99;22.96
64402;BME280;50724;42.376;23.768;2023-07-30T13:20:25;92743.28;;;34.02;23.48
64402;BME280;50724;42.376;23.768;2023-07-30T13:23:26;92736.78;;;34.54;22.82
64402;BME280;50724;42.376;23.768;2023-07-30T13:26:26;92746.94;;;34.83;22.54
64402;BME280;50724;42.376;23.768;2023-07-30T13:29:27;92737.66;;;34.84;22.75
64402;BME280;50724;42.376;23.768;2023-07-30T13:32:27;92736.31;;;35.16;21.65
64402;BME280;50724;42.376;23.768;2023-07-30T13:35:28;92730.38;;;34.59;22.34
64402;BME280;50724;42.376;23.768;2023-07-30T13:38:28;92733.06;;;34.76;22.84
64402;BME280;50724;42.376;23.768;2023-07-30T13:41:28;92721.00;;;34.94;22.59
64402;BME280;50724;42.376;23.768;2023-07-30T13:44:29;92716.94;;;35.26;21.60
64402;BME280;50724;42.376;23.768;2023-07-30T13:47:38;92714.06;;;35.22;21.57
64402;BME280;50724;42.376;23.768;2023-07-30T13:50:39;92725.09;;;34.54;21.54
64402;BME280;50724;42.376;23.768;2023-07-30T13:53:48;92721.72;;;33.97;22.22
64402;BME280;50724;42.376;23.768;2023-07-30T13:56:49;92718.66;;;33.64;23.12
64402;BME280;50724;42.376;23.768;2023-07-30T13:59:50;92709.72;;;33.16;23.44
64402;BME280;50724;42.376;23.768;2023-07-30T14:02:51;92707.00;;;33.81;23.29
64402;BME280;50724;42.376;23.768;2023-07-30T14:05:51;92706.09;;;34.28;23.78
64402;BME280;50724;42.376;23.768;2023-07-30T14:08:52;92701.63;;;34.24;23.52
64402;BME280;50724;42.376;23.768;2023-07-30T14:11:52;92703.34;;;34.45;22.80
64402;BME280;50724;42.376;23.768;2023-07-30T14:14:52;92690.13;;;34.27;23.11
64402;BME280;50724;42.376;23.768;2023-07-30T14:17:53;92691.72;;;34.11;23.36
64402;BME280;50724;42.376;23.768;2023-07-30T14:20:55;92688.06;;;34.07;23.12
64402;BME280;50724;42.376;23.768;2023-07-30T14:23:55;92678.06;;;33.51;23.38
64402;BME280;50724;42.376;23.768;2023-07-30T14:26:55;92680.72;;;32.86;24.29
64402;BME280;50724;42.376;23.768;2023-07-30T14:29:56;92671.00;;;31.87;25.06
64402;BME280;50724;42.376;23.768;2023-07-30T14:32:56;92665.94;;;31.94;25.75
64402;BME280;50724;42.376;23.768;2023-07-30T14:35:57;92667.97;;;32.33;25.82
64402;BME280;50724;42.376;23.768;2023-07-30T14:38:57;92656.34;;;32.55;25.48
64402;BME280;50724;42.376;23.768;2023-07-30T14:41:58;92658.22;;;32.85;25.48
64402;BME280;50724;42.376;23.768;2023-07-30T14:44:58;92664.09;;;33.09;24.86
64402;BME280;50724;42.376;23.768;2023-07-30T14:47:58;92664.72;;;33.88;24.66
64402;BME280;50724;42.376;23.768;2023-07-30T14:50:59;92660.34;;;34.56;23.45
64402;BME280;50724;42.376;23.768;2023-07-30T14:54:00;92665.66;;;35.86;21.90
64402;BME280;50724;42.376;23.768;2023-07-30T14:57:00;92665.59;;;35.45;21.62
64402;BME280;50724;42.376;23.768;2023-07-30T15:00:00;92664.69;;;35.03;21.86
64402;BME280;50724;42.376;23.768;2023-07-30T15:03:01;92660.00;;;35.12;22.54
64402;BME280;50724;42.376;23.768;2023-07-30T15:06:02;92658.44;;;34.48;22.98
64402;BME280;50724;42.376;23.768;2023-07-30T15:09:03;92653.47;;;34.50;22.95
64402;BME280;50724;42.376;23.768;2023-07-30T15:12:04;92654.97;;;33.79;22.87
64402;BME280;50724;42.376;23.768;2023-07-30T15:15:07;92656.25;;;33.64;23.86
64402;BME280;50724;42.376;23.768;2023-07-30T15:18:07;92650.81;;;33.81;23.78
64402;BME280;50724;42.376;23.768;2023-07-30T15:21:12;92650.13;;;34.44;22.69
64402;BME280;50724;42.376;23.768;2023-07-30T15:24:12;92645.72;;;33.97;23.41
64402;BME280;50724;42.376;23.768;2023-07-30T15:27:13;92641.19;;;33.41;25.44
64402;BME280;50724;42.376;23.768;2023-07-30T15:30:17;92641.00;;;32.81;26.16
64402;BME280;50724;42.376;23.768;2023-07-30T15:33:17;92638.41;;;32.68;25.51
64402;BME280;50724;42.376;23.768;2023-07-30T15:36:18;92634.31;;;33.44;25.07
64402;BME280;50724;42.376;23.768;2023-07-30T15:39:19;92643.91;;;34.99;23.68
64402;BME280;50724;42.376;23.768;2023-07-30T15:42:21;92646.47;;;35.04;24.04
64402;BME280;50724;42.376;23.768;2023-07-30T15:45:21;92641.25;;;34.01;24.56
64402;BME280;50724;42.376;23.768;2023-07-30T15:48:22;92639.69;;;33.09;25.09
64402;BME280;50724;42.376;23.768;2023-07-30T15:51:22;92639.25;;;32.77;25.85